Главная страница
METAR-TAF:

METAR-TAF

Аэропорты :

Брённёйсунн, Норвегия

широта: 65-28N, долгота: 012-13E, высота над уровнем моря: 0 м

Текущие метеонаблюдения

Эта сводка был подготовлена 20 минут назад, в 22:50 UTC
Ветер 4 Узел от юго-западный
Температура 3°C
Влажность 70%
Давление 1006 hPa
Видимость 10 км и более

METAR: ENBN 072250Z AUTO 23004KT 9999NDV NCD 03/M02 Q1006

Время: 01:10 (23:10 UTC)

Прогноз

Эта сводка был подготовлена 3 часа и 10 минут назад, в 20:00 UTC
Прогноз действительный с 07-го 21 UTC до 08-го 06 UTC
Ветер 8 Узел от северно-северо-западный
Видимость 10 км и более
небольшая облачность на высоте 3000 фута, мощно-кучевые.
временами
С 07-го 21 UTC до 08-го 06 UTC
небольшая облачность на высоте 2500 фута, Кучево-дождевые.

TAF: ENBN 072000Z 0721/0806 33008KT 9999 FEW030TCU TEMPO 0721/0806 FEW025CB

Метеонаблюдения и прогнозы для более 4000 аэропортов (сводки METAR и TAF).

Имеющиеся станции представлены на карте желтыми и красными точками.

Чтобы увидеть название станции, наведите на нее мышь.

Затем щелкните, чтобы увидеть метеонаблюдения и метеопрогнозы.

Управление картой: чтобы увеличить масштаб, щелкните зеленые кнопки с черным крестиком; чтобы уменьшить масштаб, щелкните зеленую кнопку с тире; для просмотра соседних карт щелкайте зеленые стрелки.


METAR-TAF: